34.9°F
Current conditions from King Hill
Updated every 5 minutes
 
  Saturday January 21, 2017

Observations for Westford

Westford

44° 37' 39"N, 73° 02' 29"W, Elevation 850 ft.
Eastern Time

Hourly observations for the last 72 hours

Date Time Temperature (°F) Humi-
dity

(%)
Wind
(mph)
Pressure Rain (in)
Air Dew 6 Hour 1 Hr 3 Hr 6 Hr Day
Alt
(in)
Sea
Level

(mb)
Max Min
21 08:00 34.8 34.0 97 SW 6 G 10 29.77 1008.0 0.00
21 07:00 34.6 33.6 34.8 34.3 96 SSW 4 G 9 29.77 1008.1 0.00
21 06:00 34.4 33.4 96 SSW 4 G 7 29.78 1008.4 0.00
21 05:00 34.6 33.1 94 SSW 3 G 9 29.79 1008.7 0.00
21 04:00 34.6 32.8 93 SSW 4 G 7 29.80 1009.0 0.00
21 03:00 34.7 32.6 92 S 5 G 13 29.80 1009.2 0.00
21 02:00 34.7 32.3 91 SW 5 G 11 29.81 1009.4 0.00
21 01:00 34.4 31.5 34.4 33.0 89 SSW 1 G 6 29.80 1009.2 0.00
21 00:00 34.1 31.2 89 SSW 4 G 9 29.81 1009.6 0.00
20 23:00 33.7 30.5 88 SSW 4 G 8 29.82 1009.7 0.00
20 22:00 33.3 29.9 87 SSW 0 G 7 29.82 1009.9 0.00
20 21:00 33.2 29.8 87 S 0 G 7 29.82 1010.0 0.00
20 20:00 33.1 29.7 87 S 4 G 11 29.83 1010.1 0.00
20 19:00 33.0 29.6 37.2 32.8 87 SSW 3 G 9 29.84 1010.6 0.00
20 18:00 32.8 29.4 87 SSW 6 G 10 29.85 1010.8 0.00
20 17:00 32.9 29.5 87 SSW 4 G 10 29.84 1010.5 0.00
20 16:00 33.7 29.7 85 SW 5 G 12 29.85 1010.8 0.00
20 15:00 34.8 30.2 83 SSW 1 G 8 29.86 1011.1 0.00
20 14:00 36.8 30.3 77 SW 7 G 10 29.86 1011.2 0.00
20 13:00 34.8 29.6 34.8 31.3 81 S 1 G 6 29.88 1011.8 0.00
20 12:00 33.7 29.1 83 SSW 4 G 9 29.91 1012.8 0.00
20 11:00 33.0 28.4 83 SSW 5 G 9 29.94 1013.9 0.00
20 10:00 32.3 28.3 85 SSW 6 G 12 29.95 1014.3 0.00
20 09:00 32.3 28.3 85 S 1 G 7 29.94 1014.1 0.00
20 08:00 31.6 28.5 88 SSW 0 G 1 29.94 1014.1 0.00
20 07:00 31.4 29.1 31.8 31.1 91 Calm 29.96 1014.5 0.00
20 06:00 31.2 28.9 91 Calm 29.97 1014.9 0.00
20 05:00 31.4 29.1 91 Calm 29.95 1014.4 0.00
20 04:00 31.4 28.8 90 SSW 0 G 5 29.97 1014.8 0.00
20 03:00 31.5 29.4 92 Calm 29.97 1014.8 0.00
20 02:00 31.7 29.9 93 Calm 29.97 1014.8 0.00
20 01:00 31.8 30.0 33.3 31.8 93 Calm 29.97 1014.8 0.00
20 00:00 32.3 30.2 92 NW 0 G 4 29.98 1015.3 0.00
19 23:00 32.6 30.3 91 Calm 30.03 1016.8 0.00
19 22:00 33.0 30.1 89 Calm 30.04 1017.3 0.00
19 21:00 33.3 30.4 89 WNW 0 G 7 30.03 1017.0 0.00
19 20:00 33.0 30.4 90 Calm 30.01 1016.4 0.00
19 19:00 33.0 30.7 35.0 32.7 91 Calm 29.99 1015.7 0.00
19 18:00 32.9 30.8 92 Calm 29.98 1015.3 0.00
19 17:00 33.0 30.7 91 Calm 29.97 1014.8 0.00
19 16:00 33.7 30.8 89 Calm 29.95 1014.4 0.00
19 15:00 34.5 31.0 87 NW 2 G 6 29.95 1014.3 0.00
19 14:00 34.8 31.3 87 NW 3 G 6 29.95 1014.2 0.00
19 13:00 34.2 32.1 34.7 33.1 92 NW 2 G 7 29.95 1014.4 0.00
19 12:00 33.9 32.6 95 W 3 G 5 29.96 1014.7 0.00
19 11:00 34.6 33.3 95 W 0 G 5 29.98 1015.1 0.00
19 10:00 33.8 32.8 96 WSW 0 G 5 29.98 1015.1 0.00
19 09:00 33.5 32.5 96 SW 2 G 6 29.97 1014.8 0.00
19 08:00 33.1 32.1 96 WSW 1 G 5 29.94 1014.0 0.00
19 07:00 33.2 32.2 33.5 32.7 96 WSW 0 G 2 29.93 1013.6 0.00
19 06:00 33.1 32.3 97 Calm 29.90 1012.7 0.00
19 05:00 33.0 32.2 97 S 1 G 4 29.91 1012.8 0.00
19 04:00 32.8 31.8 96 SW 3 G 5 29.90 1012.6 0.00
19 03:00 32.9 31.9 96 SW 2 G 5 29.92 1013.1 0.00
19 02:00 32.9 31.9 96 WSW 4 G 6 29.90 1012.6 0.00
19 01:00 33.0 32.0 33.3 32.2 96 WSW 4 G 8 29.90 1012.5 0.00
19 00:00 33.0 32.0 96 SW 6 G 13 29.90 1012.5 0.00
18 23:00 33.1 32.1 96 SSW 5 G 10 29.91 1012.8 0.00
18 22:00 32.9 31.9 96 SSW 5 G 12 29.91 1012.9 0.00
18 21:00 32.8 31.8 96 S 8 G 20 29.91 1012.7 0.00
18 20:00 32.4 31.4 96 SSW 6 G 11 29.93 1013.7 0.00
18 19:00 32.3 31.0 35.5 32.3 95 SSW 5 G 11 29.94 1013.8 0.00
18 18:00 32.3 31.0 95 SSW 2 G 10 29.94 1013.9 0.00
18 17:00 32.5 31.0 94 SSW 5 G 8 29.93 1013.7 0.00
18 16:00 33.6 30.4 88 SSW 0 G 6 29.92 1013.2 0.00
18 15:00 34.2 30.2 85 SSW 4 G 8 29.91 1012.7 0.00
18 14:00 34.5 30.2 84 S 4 G 12 29.88 1012.0 0.00
18 13:00 35.5 29.9 35.9 31.7 80 S 5 G 11 29.89 1012.1 0.00
18 12:00 35.8 29.3 77 S 4 G 10 29.91 1012.9 0.00
18 11:00 35.3 28.8 77 S 7 G 18 29.91 1012.8 0.00
18 10:00 34.7 28.9 79 S 6 G 15 29.91 1012.8 0.00
18 09:00 33.0 28.4 83 S 5 G 11 29.91 1012.9 0.00

Data generated by WxSolution Version 1.9.0.6, Build 2017.01.14.


 
 
Current Radar Loop:

Copyright © WestfordWeather.net 2007-2017. All rights reserved.